Time;durP1;ratioP1;P1;durP2;ratioP2;P2;SDS_P1;SDS_P2;PMS_P1;PMS_P2;Temp;Humidity;BMP_temperature;BMP_pressure;BME280_temperature;BME280_humidity;BME280_pressure;Samples;Min_cycle;Max_cycle;Signal;HPM_P1;HPM_P2
2022/05/30 00:01:38;;;;;;;2.50;1.50;;;;;;;28.59;22.80;97484.84;5042655;28;20033;-78
2022/05/30 00:04:04;;;;;;;3.13;1.42;;;;;;;28.61;22.94;97479.50;5041800;28;20469;-78
2022/05/30 00:06:30;;;;;;;1.38;1.27;;;;;;;28.63;22.84;97479.78;5042053;28;20025;-78
2022/05/30 00:08:57;;;;;;;2.03;1.20;;;;;;;28.80;22.62;97480.16;5036747;28;20030;-78
2022/05/30 00:11:25;;;;;;;2.38;1.13;;;;;;;28.79;22.71;97487.84;5046258;28;20496;-78
2022/05/30 00:13:51;;;;;;;2.67;1.10;;;;;;;28.77;22.86;97490.38;5040241;28;20120;-78
2022/05/30 00:16:19;;;;;;;2.10;1.20;;;;;;;28.67;22.90;97491.69;5039663;28;20030;-78
2022/05/30 00:18:46;;;;;;;3.35;1.42;;;;;;;28.25;23.51;97491.69;5046224;28;20044;-78
2022/05/30 00:21:12;;;;;;;1.77;1.10;;;;;;;28.52;23.12;97491.56;5040905;28;20666;-77
2022/05/30 00:23:40;;;;;;;1.88;1.05;;;;;;;28.71;22.96;97487.41;5040400;28;20036;-78
2022/05/30 00:26:07;;;;;;;2.17;1.30;;;;;;;27.98;23.11;97488.94;5043621;28;20025;-78
2022/05/30 00:28:35;;;;;;;3.45;1.50;;;;;;;27.94;23.84;97491.94;5027132;28;20473;-77
2022/05/30 00:31:01;;;;;;;2.80;1.73;;;;;;;27.73;23.99;97481.63;5034557;28;20026;-78
2022/05/30 00:33:28;;;;;;;3.28;2.13;;;;;;;27.95;23.87;97479.41;5042501;28;20033;-78
2022/05/30 00:35:54;;;;;;;3.38;1.00;;;;;;;28.17;23.61;97482.00;5039397;28;20033;-78
2022/05/30 00:38:21;;;;;;;5.50;2.42;;;;;;;27.68;23.70;97470.97;5041264;28;20543;-78
2022/05/30 00:40:47;;;;;;;1.60;1.10;;;;;;;28.06;23.75;97485.34;5039448;28;20485;-78
2022/05/30 00:43:26;;;;;;;3.50;1.90;;;;;;;27.72;24.26;97479.28;5038466;28;20041;-78
2022/05/30 00:45:53;;;;;;;2.85;1.50;;;;;;;27.99;23.93;97480.03;5043301;28;20029;-77
2022/05/30 00:48:23;;;;;;;2.28;1.80;;;;;;;28.16;23.84;97474.00;5037890;28;20069;-77
2022/05/30 00:50:54;;;;;;;2.65;1.20;;;;;;;28.41;23.39;97470.75;5041654;28;20041;-78
2022/05/30 00:53:20;;;;;;;3.42;1.67;;;;;;;28.40;23.52;97469.97;5042421;28;20087;-77
2022/05/30 00:55:48;;;;;;;2.60;1.92;;;;;;;28.13;23.46;97469.31;5037863;28;20079;-78
2022/05/30 00:58:18;;;;;;;3.80;2.20;;;;;;;27.62;24.21;97458.78;5043698;28;20034;-77
2022/05/30 01:00:45;;;;;;;5.25;2.20;;;;;;;27.46;24.86;97458.34;5042190;28;20040;-77
2022/05/30 01:08:41;;;;;;;2.78;2.13;;;;;;;27.82;24.11;97463.91;5037404;28;20051;-77
2022/05/30 01:11:07;;;;;;;2.90;1.85;;;;;;;28.00;24.31;97455.41;5040409;28;20468;-78
2022/05/30 01:13:33;;;;;;;2.83;1.35;;;;;;;28.04;24.39;97450.38;5042682;28;20079;-77
2022/05/30 01:15:59;;;;;;;2.50;2.00;;;;;;;28.08;24.09;97453.81;5038708;28;20046;-77
2022/05/30 01:18:34;;;;;;;3.05;1.70;;;;;;;28.34;23.71;97442.88;5038334;28;20204;-77
2022/05/30 01:21:44;;;;;;;2.50;1.60;;;;;;;28.44;23.39;97442.34;5041254;28;20558;-78
2022/05/30 01:24:43;;;;;;;4.22;2.30;;;;;;;28.21;23.62;97431.03;4929789;29;20089;-77
2022/05/30 01:27:39;;;;;;;3.65;2.38;;;;;;;27.86;24.45;97431.47;4925058;29;20051;-77
2022/05/30 01:30:10;;;;;;;3.33;1.52;;;;;;;27.90;24.40;97432.06;5028347;28;20045;-77
2022/05/30 01:32:36;;;;;;;;;;;;;;;27.50;25.25;97425.09;5039943;28;20115;-77
2022/05/30 01:35:02;;;;;;;5.22;2.65;;;;;;;27.69;24.72;97418.97;5041895;28;19996;-77
2022/05/30 01:37:28;;;;;;;4.28;1.73;;;;;;;27.44;25.35;97419.34;5040381;28;20040;-77
2022/05/30 01:39:54;;;;;;;7.60;3.65;;;;;;;27.09;25.43;97413.25;5026736;28;20029;-78
2022/05/30 01:42:21;;;;;;;3.42;2.67;;;;;;;27.05;25.42;97420.31;5040096;28;20103;-77
2022/05/30 01:44:47;;;;;;;3.78;3.05;;;;;;;26.79;25.95;97416.22;5039442;28;20159;-77
2022/05/30 01:47:13;;;;;;;6.13;3.92;;;;;;;26.06;27.26;97416.00;5040122;28;20034;-78
2022/05/30 01:49:39;;;;;;;4.88;3.17;;;;;;;26.81;26.37;97422.16;5037946;28;20052;-77
2022/05/30 01:52:06;;;;;;;5.57;4.25;;;;;;;26.73;26.28;97435.72;5038937;28;20033;-77
2022/05/30 01:54:32;;;;;;;4.32;3.13;;;;;;;26.90;26.23;97424.97;5039270;28;20029;-77
2022/05/30 01:56:58;;;;;;;4.90;3.72;;;;;;;27.19;25.61;97426.06;5028869;28;20079;-77
2022/05/30 01:59:24;;;;;;;4.70;2.60;;;;;;;27.49;25.45;97424.34;5037320;28;20040;-77
2022/05/30 02:01:50;;;;;;;7.57;4.20;;;;;;;27.42;25.47;97427.50;5037519;28;20083;-77
2022/05/30 02:04:18;;;;;;;8.25;5.47;;;;;;;27.24;25.38;97416.97;5040769;28;20036;-77
2022/05/30 02:06:44;;;;;;;6.40;4.22;;;;;;;26.71;26.23;97426.97;5044317;28;20021;-77
2022/05/30 02:09:11;;;;;;;6.07;3.75;;;;;;;27.30;25.64;97428.41;5039167;28;20029;-77
2022/05/30 02:11:37;;;;;;;6.20;3.40;;;;;;;27.19;25.72;97430.94;5042782;28;20040;-77
2022/05/30 02:14:04;;;;;;;4.20;3.08;;;;;;;27.15;25.72;97425.44;5047986;28;21378;-77
2022/05/30 02:19:17;;;;;;;6.93;4.25;;;;;;;26.83;26.54;97431.72;5044906;28;20112;-77
2022/05/30 02:21:43;;;;;;;6.63;3.80;;;;;;;26.53;26.24;97433.38;5047264;28;20401;-77
2022/05/30 02:24:09;;;;;;;5.40;4.85;;;;;;;26.08;27.38;97433.19;5048899;28;20388;-77
2022/05/30 02:26:36;;;;;;;8.98;5.15;;;;;;;26.07;27.59;97431.63;5043718;28;20041;-77
2022/05/30 02:29:03;;;;;;;7.13;5.10;;;;;;;26.23;26.70;97427.81;5038201;28;20025;-77
2022/05/30 02:31:29;;;;;;;6.78;4.72;;;;;;;26.58;26.60;97420.72;5045298;28;20045;-77
2022/05/30 02:36:41;;;;;;;6.95;4.75;;;;;;;26.81;26.53;97424.97;5053659;28;20047;-77
2022/05/30 02:39:08;;;;;;;7.15;3.63;;;;;;;26.98;26.39;97432.66;5044784;28;20021;-77
2022/05/30 02:41:35;;;;;;;5.45;4.32;;;;;;;27.15;25.37;97427.47;5039396;28;20171;-77
2022/05/30 02:44:01;;;;;;;6.38;4.72;;;;;;;26.70;26.57;97436.66;5047399;28;20048;-77
2022/05/30 02:46:27;;;;;;;4.95;3.63;;;;;;;26.77;26.02;97435.63;5045555;28;20388;-77
2022/05/30 02:48:53;;;;;;;5.43;3.78;;;;;;;26.86;26.02;97436.41;5047832;28;20041;-77
2022/05/30 02:51:19;;;;;;;7.47;5.68;;;;;;;26.59;26.90;97439.16;5045309;28;20056;-77
2022/05/30 02:53:45;;;;;;;6.75;4.20;;;;;;;26.84;25.97;97438.13;5044606;28;20025;-77
2022/05/30 02:56:13;;;;;;;7.35;5.00;;;;;;;27.32;25.75;97443.59;5043792;28;20127;-77
2022/05/30 02:58:39;;;;;;;8.90;5.95;;;;;;;26.83;25.99;97450.63;5043482;28;20454;-77
2022/05/30 03:01:05;;;;;;;9.05;5.72;;;;;;;26.45;26.61;97453.81;5042440;28;20034;-77
2022/05/30 03:03:32;;;;;;;7.88;5.10;;;;;;;26.50;27.02;97448.38;5048702;28;20029;-77
2022/05/30 03:05:58;;;;;;;9.50;5.72;;;;;;;26.41;26.85;97456.78;5039739;28;20503;-77
2022/05/30 03:08:24;;;;;;;8.57;6.05;;;;;;;26.43;27.04;97448.66;5041086;28;20075;-77
2022/05/30 03:10:50;;;;;;;7.28;4.43;;;;;;;26.98;26.25;97448.78;5025836;28;20032;-77
2022/05/30 03:13:17;;;;;;;6.82;4.65;;;;;;;27.07;26.03;97451.59;5042081;28;20042;-77
2022/05/30 03:15:43;;;;;;;9.18;4.47;;;;;;;27.13;25.83;97449.72;5039520;28;20124;-77
2022/05/30 03:18:09;;;;;;;8.80;6.05;;;;;;;27.08;26.23;97455.97;5045523;28;20500;-77
2022/05/30 03:20:36;;;;;;;7.05;5.30;;;;;;;27.19;25.86;97459.88;5037519;28;20063;-77
2022/05/30 03:23:02;;;;;;;6.35;4.10;;;;;;;27.51;25.61;97457.72;5038964;28;20030;-77
2022/05/30 03:25:28;;;;;;;7.68;6.43;;;;;;;26.43;26.87;97464.75;5050058;28;20025;-76
2022/05/30 03:27:58;;;;;;;7.05;5.68;;;;;;;26.27;27.41;97462.22;5043664;28;20025;-76
2022/05/30 03:30:25;;;;;;;10.23;7.35;;;;;;;26.87;26.23;97468.94;5045824;28;20048;-77
2022/05/30 03:32:51;;;;;;;5.82;4.60;;;;;;;27.28;25.76;97468.34;5041843;28;20025;-77
2022/05/30 03:35:18;;;;;;;8.88;6.18;;;;;;;27.47;25.08;97469.13;5027011;28;20432;-77
2022/05/30 03:37:45;;;;;;;8.07;4.50;;;;;;;27.97;24.67;97459.94;5046395;28;20067;-77
2022/05/30 03:40:14;;;;;;;6.85;4.60;;;;;;;27.74;24.96;97471.13;5041736;28;20100;-77
2022/05/30 03:42:40;;;;;;;5.97;4.85;;;;;;;27.95;24.70;97465.28;5040464;28;20036;-77
2022/05/30 03:45:13;;;;;;;7.75;5.40;;;;;;;27.84;25.03;97473.44;5046007;28;20032;-77
2022/05/30 03:47:41;;;;;;;8.20;7.40;;;;;;;27.12;25.77;97465.06;5043637;28;20775;-77
2022/05/30 03:50:12;;;;;;;5.72;4.53;;;;;;;27.34;25.65;97479.78;5039657;28;20025;-77
2022/05/30 03:52:39;;;;;;;5.75;4.72;;;;;;;27.29;25.75;97480.41;5040948;28;20061;-77
2022/05/30 03:55:08;;;;;;;7.85;6.53;;;;;;;26.85;26.50;97479.91;5041787;28;20033;-77
2022/05/30 03:57:34;;;;;;;7.40;5.22;;;;;;;27.09;26.15;97472.44;5041596;28;20032;-77
2022/05/30 04:00:00;;;;;;;16.88;8.82;;;;;;;26.63;26.67;97465.91;5043666;28;20551;-77
2022/05/30 04:02:26;;;;;;;7.07;5.32;;;;;;;26.90;26.28;97475.69;5029855;28;20025;-77
2022/05/30 04:04:52;;;;;;;9.32;6.88;;;;;;;26.80;26.41;97462.84;5046625;28;20029;-77
2022/05/30 04:07:19;;;;;;;6.50;5.05;;;;;;;27.44;25.68;97474.94;5046474;28;20032;-77
2022/05/30 04:09:45;;;;;;;7.18;5.80;;;;;;;27.36;25.60;97472.41;5042188;28;20034;-77
2022/05/30 04:12:11;;;;;;;7.13;5.07;;;;;;;27.62;25.14;97469.28;5038947;28;20048;-77
2022/05/30 04:14:37;;;;;;;6.32;4.15;;;;;;;26.88;25.94;97478.97;5039904;28;20036;-77
2022/05/30 04:17:03;;;;;;;8.10;5.25;;;;;;;27.30;25.54;97476.34;5043608;28;20047;-77
2022/05/30 04:19:29;;;;;;;6.25;5.10;;;;;;;27.17;26.09;97470.06;5045153;28;20093;-77
2022/05/30 04:21:55;;;;;;;5.72;4.97;;;;;;;27.38;25.69;97464.28;5043599;28;20040;-78
2022/05/30 04:24:21;;;;;;;8.63;6.05;;;;;;;27.59;25.38;97459.72;5046568;28;20029;-76
2022/05/30 04:26:47;;;;;;;6.70;4.47;;;;;;;27.31;25.34;97464.59;5045082;28;20103;-77
2022/05/30 04:29:14;;;;;;;4.85;3.70;;;;;;;27.09;25.75;97461.16;5039088;28;20032;-78
2022/05/30 04:31:40;;;;;;;4.57;3.97;;;;;;;26.89;26.02;97460.81;5045547;28;20079;-77
2022/05/30 04:34:08;;;;;;;6.85;4.40;;;;;;;27.08;25.78;97462.41;5045439;28;20396;-79
2022/05/30 04:36:34;;;;;;;8.70;4.85;;;;;;;27.90;24.74;97467.97;5039674;28;20032;-79
2022/05/30 04:39:00;;;;;;;7.57;3.60;;;;;;;28.35;24.49;97459.34;5037371;28;20042;-79
2022/05/30 04:41:26;;;;;;;4.15;3.33;;;;;;;28.86;23.91;97464.88;5039682;28;20037;-79
2022/05/30 04:43:52;;;;;;;6.28;3.50;;;;;;;28.73;24.00;97478.44;5045498;28;20102;-78
2022/05/30 04:46:22;;;;;;;8.93;3.58;;;;;;;28.21;24.06;97474.16;5048199;28;20060;-78
2022/05/30 04:48:48;;;;;;;7.43;4.50;;;;;;;27.53;25.32;97472.13;5042324;28;20103;-78
2022/05/30 04:51:15;;;;;;;5.65;4.78;;;;;;;27.48;25.42;97472.75;5044152;28;20029;-76
2022/05/30 04:53:41;;;;;;;8.45;3.10;;;;;;;27.76;25.11;97475.06;5032726;28;20029;-76
2022/05/30 04:56:07;;;;;;;8.15;4.72;;;;;;;27.64;24.79;97473.19;5042308;28;20079;-76
2022/05/30 04:58:35;;;;;;;5.97;4.72;;;;;;;27.55;25.16;97470.38;5039837;28;20488;-77
2022/05/30 05:01:05;;;;;;;11.32;5.45;;;;;;;27.33;25.41;97470.53;5039161;28;20400;-79
2022/05/30 05:03:33;;;;;;;7.03;5.05;;;;;;;27.49;25.20;97463.03;5040095;28;20060;-79
2022/05/30 05:06:07;;;;;;;6.95;3.13;;;;;;;27.80;24.85;97463.59;5040307;28;20496;-79
2022/05/30 05:08:50;;;;;;;4.80;3.33;;;;;;;28.07;24.52;97469.19;5039061;28;20029;-79
2022/05/30 05:11:24;;;;;;;7.53;4.53;;;;;;;28.04;24.73;97473.75;5042620;28;20052;-79
2022/05/30 05:13:51;;;;;;;4.53;3.60;;;;;;;27.81;24.73;97471.59;5046023;28;20037;-79
2022/05/30 05:16:19;;;;;;;6.47;4.28;;;;;;;28.08;24.26;97467.91;5039499;28;20538;-80
2022/05/30 05:18:46;;;;;;;7.75;3.85;;;;;;;27.85;24.56;97477.84;5043460;28;20032;-79
2022/05/30 05:21:21;;;;;;;9.18;4.93;;;;;;;27.92;24.47;97480.34;5041670;28;20540;-81
2022/05/30 05:23:47;;;;;;;8.40;3.50;;;;;;;28.17;24.46;97490.47;5040724;28;20483;-80
2022/05/30 05:26:14;;;;;;;5.18;3.53;;;;;;;28.53;23.80;97479.03;5041927;28;20033;-78
2022/05/30 05:28:40;;;;;;;4.45;3.22;;;;;;;28.33;24.13;97489.31;5038345;28;20026;-76
2022/05/30 05:31:08;;;;;;;4.10;3.35;;;;;;;27.23;25.00;97488.72;5042399;28;20024;-78
2022/05/30 05:33:35;;;;;;;8.73;5.35;;;;;;;26.98;26.00;97499.50;5041310;28;20029;-77
2022/05/30 05:36:02;;;;;;;8.57;5.82;;;;;;;27.19;25.48;97495.75;5044782;28;20047;-77
2022/05/30 05:38:28;;;;;;;5.60;3.40;;;;;;;28.06;24.81;97504.31;5044967;28;20574;-77
2022/05/30 05:40:54;;;;;;;6.20;3.47;;;;;;;28.41;24.34;97499.78;5042415;28;20026;-77
2022/05/30 05:43:21;;;;;;;6.75;4.47;;;;;;;28.22;24.38;97497.50;5039850;28;20120;-75
2022/05/30 05:45:47;;;;;;;8.90;5.57;;;;;;;27.81;24.89;97491.34;5042491;28;20036;-76
2022/05/30 05:48:14;;;;;;;4.57;3.17;;;;;;;28.40;24.21;97505.91;5045721;28;20090;-78
2022/05/30 05:50:41;;;;;;;12.18;6.18;;;;;;;27.96;24.39;97494.25;5038758;28;20409;-78
2022/05/30 05:53:08;;;;;;;8.55;4.63;;;;;;;27.68;24.91;97502.00;5045342;28;20107;-78
2022/05/30 05:55:34;;;;;;;12.05;7.57;;;;;;;26.91;25.98;97522.34;5042889;28;20116;-76
2022/05/30 05:58:00;;;;;;;8.45;5.85;;;;;;;26.98;26.26;97522.81;5046409;28;20045;-75
2022/05/30 06:00:27;;;;;;;7.05;4.63;;;;;;;27.23;25.31;97522.53;5047063;28;20029;-76
2022/05/30 06:02:54;;;;;;;8.05;4.22;;;;;;;27.32;25.42;97522.53;5050185;28;20033;-77
2022/05/30 06:05:20;;;;;;;8.02;4.53;;;;;;;27.27;25.56;97523.16;5042073;28;20033;-76
2022/05/30 06:07:46;;;;;;;11.25;6.05;;;;;;;26.78;25.91;97525.28;5027983;28;20029;-76
2022/05/30 06:10:14;;;;;;;8.45;4.15;;;;;;;26.56;26.77;97533.78;5047563;28;20120;-76
2022/05/30 06:12:43;;;;;;;6.43;3.88;;;;;;;26.84;26.37;97537.50;5040414;28;20030;-76
2022/05/30 06:15:11;;;;;;;7.60;5.00;;;;;;;27.44;25.52;97534.16;5043059;28;20404;-76
2022/05/30 06:17:42;;;;;;;5.72;3.53;;;;;;;27.91;24.81;97526.72;5044615;28;20035;-76
2022/05/30 06:20:10;;;;;;;5.05;3.55;;;;;;;28.13;24.63;97535.03;5040576;28;20468;-76
2022/05/30 06:22:37;;;;;;;6.20;3.90;;;;;;;27.50;25.04;97515.34;5042756;28;20029;-76
2022/05/30 06:25:04;;;;;;;4.18;3.13;;;;;;;27.65;25.16;97528.34;5047078;28;20438;-76
2022/05/30 06:27:30;;;;;;;5.35;2.95;;;;;;;27.41;24.98;97533.06;5044110;28;20116;-77
2022/05/30 06:29:57;;;;;;;2.90;2.60;;;;;;;27.79;24.99;97535.38;5046979;28;20492;-76
2022/05/30 06:32:23;;;;;;;4.90;3.08;;;;;;;28.21;24.39;97535.47;5041922;28;20036;-76
2022/05/30 06:34:49;;;;;;;4.38;2.88;;;;;;;28.23;24.59;97538.59;5046601;28;20069;-77
2022/05/30 06:37:15;;;;;;;5.60;3.08;;;;;;;28.12;24.36;97538.34;5044620;28;20032;-77
2022/05/30 06:39:41;;;;;;;4.28;1.95;;;;;;;28.24;24.58;97534.53;5041913;28;20044;-77
2022/05/30 06:42:12;;;;;;;2.83;1.92;;;;;;;28.23;24.67;97541.44;5044276;28;20400;-76
2022/05/30 06:44:39;;;;;;;3.10;1.90;;;;;;;28.65;24.03;97536.59;5041001;28;20029;-76
2022/05/30 06:47:10;;;;;;;4.32;2.00;;;;;;;28.95;23.60;97541.13;5048959;28;20090;-76
2022/05/30 06:49:36;;;;;;;3.33;2.05;;;;;;;28.28;24.38;97537.97;5046163;28;20073;-76
2022/05/30 06:52:03;;;;;;;2.45;1.27;;;;;;;28.55;24.20;97546.31;5043303;28;20052;-76
2022/05/30 06:54:29;;;;;;;1.67;1.35;;;;;;;29.08;23.75;97543.72;5038592;28;20393;-76
2022/05/30 06:59:39;;;;;;;1.90;1.00;;;;;;;28.94;23.88;97550.09;5041095;28;20079;-76
2022/05/30 07:02:07;;;;;;;1.90;1.30;;;;;;;28.98;23.42;97568.44;5040738;28;20030;-77
2022/05/30 07:04:34;;;;;;;2.00;0.93;;;;;;;28.92;23.41;97576.00;5042944;28;20025;-76
2022/05/30 07:07:07;;;;;;;1.00;0.80;;;;;;;28.21;24.59;97567.31;5041032;28;20029;-77
2022/05/30 07:09:34;;;;;;;0.90;0.60;;;;;;;28.54;24.00;97578.69;5042515;28;20880;-77
2022/05/30 07:12:01;;;;;;;1.45;1.08;;;;;;;28.22;24.24;97573.72;5043232;28;20040;-76
2022/05/30 07:14:27;;;;;;;3.58;1.00;;;;;;;28.14;24.30;97576.13;5041019;28;20052;-77
2022/05/30 07:16:53;;;;;;;1.40;1.30;;;;;;;28.49;23.82;97587.78;5040050;28;20112;-76
2022/05/30 07:19:19;;;;;;;2.15;1.25;;;;;;;28.36;24.15;97575.88;5041358;28;20033;-77
2022/05/30 07:21:46;;;;;;;1.02;0.93;;;;;;;28.21;24.42;97580.66;5041647;28;20029;-76
2022/05/30 07:24:13;;;;;;;1.58;1.48;;;;;;;27.66;25.11;97588.34;5043008;28;20563;-76
2022/05/30 07:26:39;;;;;;;2.33;1.50;;;;;;;27.24;25.33;97590.94;5040353;28;20435;-77
2022/05/30 07:29:06;;;;;;;1.40;1.30;;;;;;;27.25;25.52;97584.88;5042586;28;20112;-76
2022/05/30 07:31:32;;;;;;;1.65;1.40;;;;;;;27.36;25.53;97581.59;5041983;28;20038;-77
2022/05/30 07:34:00;;;;;;;2.00;1.30;;;;;;;28.06;24.92;97586.94;5047138;28;20055;-76
2022/05/30 07:36:29;;;;;;;2.92;1.40;;;;;;;27.84;24.95;97591.19;5029201;28;20034;-76
2022/05/30 07:38:56;;;;;;;2.90;1.50;;;;;;;28.36;24.73;97585.16;5040547;28;20075;-76
2022/05/30 07:41:24;;;;;;;4.13;1.10;;;;;;;28.13;24.21;97593.50;5030101;28;20040;-76
2022/05/30 07:43:50;;;;;;;2.50;1.23;;;;;;;29.15;23.23;97595.03;5040974;28;20041;-77
2022/05/30 07:46:18;;;;;;;0.95;0.90;;;;;;;28.29;24.70;97608.06;5043830;28;20033;-77
2022/05/30 07:48:45;;;;;;;1.40;1.30;;;;;;;28.72;24.05;97592.75;5041097;28;20048;-77
2022/05/30 07:51:13;;;;;;;3.25;1.55;;;;;;;29.21;23.61;97595.97;5020924;28;20102;-77
2022/05/30 07:53:40;;;;;;;1.75;1.38;;;;;;;28.88;23.93;97595.19;5044192;28;20031;-77
2022/05/30 07:56:09;;;;;;;1.50;1.30;;;;;;;28.96;23.57;97590.75;5040962;28;20033;-76
2022/05/30 07:58:36;;;;;;;1.95;1.30;;;;;;;28.71;23.47;97589.13;5039787;28;20037;-77
2022/05/30 08:01:04;;;;;;;1.08;0.90;;;;;;;29.16;23.21;97595.81;5040281;28;20416;-77
2022/05/30 08:03:31;;;;;;;1.55;0.88;;;;;;;29.75;22.32;97594.00;5040735;28;20529;-77
2022/05/30 08:06:12;;;;;;;0.98;0.73;;;;;;;29.10;21.82;97607.00;5040271;28;20155;-77
2022/05/30 08:08:39;;;;;;;1.15;0.82;;;;;;;29.09;22.13;97605.44;5040091;28;20128;-76
2022/05/30 08:11:05;;;;;;;1.00;0.60;;;;;;;29.70;22.40;97609.63;5041805;28;20021;-77
2022/05/30 08:13:31;;;;;;;2.00;1.05;;;;;;;30.15;22.12;97619.78;5040945;28;20063;-77
2022/05/30 08:15:58;;;;;;;2.55;0.73;;;;;;;29.46;21.77;97620.16;5042026;28;20040;-77
2022/05/30 08:18:24;;;;;;;2.45;1.27;;;;;;;28.88;22.50;97622.66;5039160;28;20033;-77
2022/05/30 08:20:50;;;;;;;2.03;0.80;;;;;;;28.83;22.43;97626.13;5039590;28;20512;-76
2022/05/30 08:23:17;;;;;;;2.15;0.82;;;;;;;28.16;22.86;97620.81;5043926;28;20029;-76
2022/05/30 08:25:45;;;;;;;0.88;0.73;;;;;;;28.71;22.88;97627.91;5040164;28;20524;-77
2022/05/30 08:28:11;;;;;;;1.25;0.80;;;;;;;28.88;21.96;97626.28;5039539;28;20024;-76
2022/05/30 08:30:38;;;;;;;0.90;0.40;;;;;;;29.15;22.47;97626.13;5040521;28;20067;-77
2022/05/30 08:33:10;;;;;;;0.40;0.40;;;;;;;29.60;21.96;97624.31;5040921;28;20064;-76
2022/05/30 08:35:37;;;;;;;0.82;0.68;;;;;;;29.35;21.20;97623.53;5047538;28;20542;-76
2022/05/30 08:38:04;;;;;;;1.13;0.60;;;;;;;29.79;20.69;97631.41;5040130;28;20408;-77
2022/05/30 08:43:37;;;;;;;0.55;0.55;;;;;;;30.51;20.40;97638.47;5043316;28;20126;-77
2022/05/30 08:46:08;;;;;;;1.35;0.55;;;;;;;30.34;20.72;97629.69;5040525;28;20066;-77
2022/05/30 08:48:34;;;;;;;;;;;;;;;30.24;19.90;97630.25;5041867;28;20048;-77
2022/05/30 08:51:12;;;;;;;2.83;0.60;;;;;;;30.33;20.70;97633.00;5042185;28;19921;-76
2022/05/30 08:53:46;;;;;;;0.98;0.60;;;;;;;30.06;20.44;97636.84;5040836;28;20025;-76
2022/05/30 08:56:17;;;;;;;0.30;0.30;;;;;;;30.99;19.70;97639.06;5042578;28;20036;-77
2022/05/30 08:59:00;;;;;;;;;;;;;;;29.70;20.72;97631.47;5021157;28;20519;-76
2022/05/30 09:01:40;;;;;;;0.70;0.50;;;;;;;29.99;20.40;97621.03;5027878;28;19917;-76
2022/05/30 09:04:16;;;;;;;;;;;;;;;30.49;20.23;97633.31;5043862;28;20025;-77
2022/05/30 09:07:01;;;;;;;1.00;0.52;;;;;;;30.97;19.82;97633.88;5040582;28;19999;-77
2022/05/30 09:09:33;;;;;;;0.52;0.52;;;;;;;31.68;19.88;97635.41;5040939;28;20033;-77
2022/05/30 09:12:03;;;;;;;1.38;0.60;;;;;;;30.65;19.34;97632.03;5021269;28;20044;-77
2022/05/30 09:14:55;;;;;;;0.95;0.60;;;;;;;30.30;20.15;97637.56;5040798;28;20096;-76
2022/05/30 09:17:34;;;;;;;0.90;0.50;;;;;;;30.97;21.38;97639.53;5033278;28;20500;-77
2022/05/30 09:20:06;;;;;;;0.77;0.50;;;;;;;31.36;19.67;97635.25;5040876;28;20037;-77
2022/05/30 09:22:34;;;;;;;0.50;0.32;;;;;;;31.80;18.56;97642.81;5040438;28;20028;-77
2022/05/30 09:27:45;;;;;;;0.30;0.30;;;;;;;32.39;18.93;97646.88;5041481;28;20044;-77
2022/05/30 09:30:16;;;;;;;1.02;0.30;;;;;;;32.15;19.71;97635.00;5039686;28;20426;-77
2022/05/30 09:32:58;;;;;;;1.90;0.70;;;;;;;31.35;19.88;97649.91;5039371;28;20504;-77
2022/05/30 09:35:33;;;;;;;0.73;0.50;;;;;;;32.02;18.61;97660.16;5038976;28;20493;-77
2022/05/30 09:38:21;;;;;;;0.28;0.28;;;;;;;32.46;18.39;97668.38;5040715;28;20043;-77
2022/05/30 09:40:52;;;;;;;0.40;0.40;;;;;;;31.40;18.80;97672.69;5044116;28;20029;-77
2022/05/30 09:43:30;;;;;;;0.45;0.40;;;;;;;31.03;19.32;97668.00;5024081;28;20033;-77
2022/05/30 09:46:13;;;;;;;0.47;0.40;;;;;;;30.54;20.44;97675.13;5023668;28;20071;-77
2022/05/30 09:48:39;;;;;;;0.50;0.50;;;;;;;29.67;21.49;97683.34;5013724;28;20498;-77
2022/05/30 09:51:06;;;;;;;0.95;0.50;;;;;;;30.34;20.77;97671.41;5007319;28;20102;-77
2022/05/30 09:53:41;;;;;;;0.55;0.40;;;;;;;30.42;20.74;97678.25;5006515;28;20026;-77
2022/05/30 09:56:10;;;;;;;0.68;0.30;;;;;;;30.56;20.52;97680.31;5010134;28;20401;-77
2022/05/30 09:58:44;;;;;;;1.15;0.55;;;;;;;30.45;20.80;97680.09;5008893;28;20037;-77
2022/05/30 10:01:10;;;;;;;0.63;0.50;;;;;;;31.13;18.42;97675.13;5004098;28;20034;-77
2022/05/30 10:03:41;;;;;;;0.50;0.50;;;;;;;32.02;18.38;97674.34;5001746;28;20034;-77
2022/05/30 10:06:25;;;;;;;0.50;0.50;;;;;;;31.96;18.00;97667.78;5010607;28;20548;-77
2022/05/30 10:09:09;;;;;;;0.60;0.50;;;;;;;32.26;19.15;97665.56;5007884;28;20038;-77
2022/05/30 10:11:36;;;;;;;1.80;0.60;;;;;;;31.74;18.64;97665.44;5018523;28;20387;-77
2022/05/30 10:14:22;;;;;;;0.70;0.70;;;;;;;30.04;21.17;97676.19;4999179;28;20508;-77
2022/05/30 10:16:51;;;;;;;1.25;0.60;;;;;;;30.31;20.47;97663.84;5009636;28;20448;-77
2022/05/30 10:19:27;;;;;;;0.68;0.68;;;;;;;28.59;22.50;97672.03;5003682;28;20041;-77
2022/05/30 10:30:46;;;;;;;1.90;0.55;;;;;;;29.70;21.36;97654.09;5009061;28;20096;-77
2022/05/30 10:33:53;;;;;;;0.85;0.70;;;;;;;30.38;19.87;97655.00;5005965;28;20482;-77
2022/05/30 10:36:41;;;;;;;0.70;0.60;;;;;;;31.46;19.36;97655.75;5028260;28;20120;-77
2022/05/30 10:39:25;;;;;;;0.93;0.60;;;;;;;30.51;20.06;97661.16;5012887;28;20494;-78
2022/05/30 10:42:05;;;;;;;0.70;0.60;;;;;;;31.28;19.40;97656.78;5014258;28;20476;-77
2022/05/30 10:44:44;;;;;;;5.82;1.15;;;;;;;31.48;19.76;97661.75;5011171;28;20156;-77
2022/05/30 10:47:18;;;;;;;0.88;0.70;;;;;;;31.85;18.80;97657.09;5009759;28;20547;-78
2022/05/30 10:49:52;;;;;;;0.70;0.70;;;;;;;32.05;17.20;97650.63;5042537;28;20080;-77
2022/05/30 10:52:40;;;;;;;2.83;0.70;;;;;;;32.25;17.64;97666.88;5041354;28;20045;-77
2022/05/30 10:55:11;;;;;;;0.63;0.60;;;;;;;31.42;19.09;97675.84;5046978;28;20037;-78
2022/05/30 10:58:08;;;;;;;1.30;0.60;;;;;;;31.44;19.15;97668.91;5022385;28;20124;-77
2022/05/30 11:00:51;;;;;;;0.90;0.60;;;;;;;30.36;21.09;97664.00;5042530;28;20029;-77
2022/05/30 11:03:40;;;;;;;1.75;0.73;;;;;;;31.18;18.88;97660.25;5043349;28;20044;-77
2022/05/30 11:06:17;;;;;;;2.05;0.65;;;;;;;30.77;19.33;97656.47;5041710;28;20040;-77
2022/05/30 11:09:06;;;;;;;1.05;0.50;;;;;;;29.96;20.71;97663.69;5042726;28;20112;-77
2022/05/30 11:11:46;;;;;;;2.78;0.82;;;;;;;30.41;19.59;97663.28;5029957;28;20104;-77
2022/05/30 11:14:35;;;;;;;1.30;0.70;;;;;;;32.23;18.76;97666.59;5039771;28;20029;-77
2022/05/30 11:17:16;;;;;;;5.05;0.63;;;;;;;32.13;17.13;97665.16;5042702;28;20033;-77
2022/05/30 11:20:00;;;;;;;2.08;0.55;;;;;;;29.51;19.83;97670.41;5041212;28;20038;-77
2022/05/30 11:22:43;;;;;;;5.15;0.82;;;;;;;29.55;19.75;97684.38;5044377;28;20052;-77
2022/05/30 11:25:15;;;;;;;1.50;0.95;;;;;;;29.24;19.78;97682.66;5040994;28;20119;-77
2022/05/30 11:28:03;;;;;;;1.45;0.73;;;;;;;29.89;19.17;97673.34;5043412;28;20026;-77
2022/05/30 11:30:41;;;;;;;0.50;0.45;;;;;;;29.08;20.02;97688.69;5023210;28;20222;-77
2022/05/30 11:33:23;;;;;;;0.52;0.50;;;;;;;29.74;19.74;97685.81;5042994;28;20056;-77
2022/05/30 11:36:00;;;;;;;1.08;0.60;;;;;;;30.66;18.71;97679.75;5043371;28;20077;-77
2022/05/30 11:38:53;;;;;;;0.40;0.40;;;;;;;30.33;19.57;97687.63;5044527;28;20030;-76
2022/05/30 11:41:40;;;;;;;0.70;0.70;;;;;;;30.62;19.75;97687.63;5039107;28;20038;-77
2022/05/30 11:44:30;;;;;;;0.77;0.50;;;;;;;30.91;19.63;97686.09;5042165;28;20038;-77
2022/05/30 11:47:15;;;;;;;2.08;0.60;;;;;;;31.28;18.84;97687.19;5044049;28;20110;-77
2022/05/30 11:50:07;;;;;;;1.40;0.75;;;;;;;31.37;19.20;97687.88;5046064;28;20094;-77
2022/05/30 11:52:54;;;;;;;0.70;0.70;;;;;;;31.51;18.91;97691.19;5043497;28;20025;-77
2022/05/30 11:55:41;;;;;;;1.10;0.70;;;;;;;31.54;18.64;97695.88;5039048;28;20041;-77
2022/05/30 11:58:18;;;;;;;1.60;0.80;;;;;;;30.74;19.76;97703.56;5042830;28;20762;-77
2022/05/30 12:00:50;;;;;;;3.33;0.70;;;;;;;31.07;18.73;97694.88;5044671;28;20083;-77
2022/05/30 12:03:48;;;;;;;0.85;0.50;;;;;;;31.63;18.10;97690.84;5041652;28;20022;-77
2022/05/30 12:06:28;;;;;;;1.00;0.73;;;;;;;31.76;17.32;97694.13;5042217;28;20489;-77
2022/05/30 12:09:12;;;;;;;1.00;0.40;;;;;;;31.95;18.83;97708.84;5040551;28;20048;-77
2022/05/30 12:11:41;;;;;;;1.95;0.70;;;;;;;31.39;18.42;97698.75;5042169;28;20033;-77
2022/05/30 12:14:24;;;;;;;0.90;0.88;;;;;;;31.94;19.04;97687.38;5043746;28;20052;-77
2022/05/30 12:17:19;;;;;;;3.10;0.80;;;;;;;31.95;18.28;97681.19;5024939;28;20045;-77
2022/05/30 12:25:55;;;;;;;0.68;0.50;;;;;;;33.11;16.89;97675.22;5044200;28;20102;-78